Sunday, May 27, 2018, 3:36 PM GMT
Back to Local

CYOW, Ottawa Int'L. Ont.

Location: , , Canada Lat: 45.317
Local Time: 3:36 PM GMT (15:36 GMT) Lon: -75.667
Time Zone: GMT Elev: 380 ft

Show me the last for .
Show Coded

Time T Td Feel RH Dir Speed Gust Alt SLP Vis Weather Sky Remarks
2018-05-27 15:00 61 50 - 67 80° 10 - 30.00 30.01 15 BKN080 BKN100 None
2018-05-27 14:00 59 48 - 67 70° 6 - 30.00 30.01 15 BKN080 None
2018-05-27 13:00 57 46 - 67 70° 9 - 30.00 30.01 15 BKN095 None
2018-05-27 12:00 57 45 - 62 80° 12 - 29.99 30.00 15 BKN088 BKN120 None
2018-05-27 11:00 55 45 - 66 70° 9 - 29.98 29.99 15 BKN097 BKN120 None
2018-05-27 10:00 57 45 - 62 60° 15 - 29.96 29.96 15 BKN130 None
2018-05-27 09:00 57 45 - 62 60° 14 - 29.96 29.96 15 SCT120 BKN140 None
2018-05-27 08:00 59 43 - 54 40° 9 - 29.96 29.97 15 BKN120 OVC140 None
2018-05-27 07:00 61 45 - 55 70° 10 - 29.94 29.95 15 BKN120 OVC140 None
2018-05-27 06:00 61 52 - 72 80° 12 - 29.94 29.95 15 BKN110 BKN130 OVC220 None
2018-05-27 05:00 61 57 - 87 60° 12 - 29.96 29.96 15 SCT110 BKN180 OVC220 None
2018-05-27 04:00 63 57 - 82 70° 7 - 29.96 29.96 15 BKN120 BKN180 OVC240 None
2018-05-27 03:00 64 59 - 82 70° 9 - 29.95 29.95 15 FEW065 BKN100 BKN120 None
2018-05-27 02:00 64 61 - 88 80° 8 - 29.94 29.95 15 SCT064 BKN110 BKN250 None
2018-05-27 01:00 66 63 - 88 80° 8 - 29.91 29.92 10 BKN060 BKN100 BKN250 None
2018-05-27 00:00 68 64 - 88 110° 8 - 29.89 29.90 15 FEW040 BKN058 BKN180 None
2018-05-26 23:00 70 64 - 83 90° 8 - 29.87 29.88 15 FEW040 BKN060 BKN180 None
2018-05-26 22:00 70 66 - 88 80° 6 - 29.86 29.86 15 BKN061 BKN075 None
2018-05-26 21:00 68 66 - 93 120° 3 - 29.86 29.86 15 BKN054 OVC070 None
2018-05-26 20:00 68 66 - 93 120° 6 - 29.85 29.85 15 -RA OVC034 None
2018-05-26 19:15 70 64 - 83 110° 9 - 29.84 29.84 10 -RA OVC017 None
2018-05-26 19:00 70 64 - 83 110° 5 - 29.83 29.83 15 BKN027 OVC070 None
2018-05-26 18:00 70 64 - 83 Variable 2 - 29.82 29.82 15 BKN048TCU OVC070 None
2018-05-26 17:00 70 64 - 83 140° 6 - 29.82 29.82 15 SCT004TCU OVC070 None
2018-05-26 16:00 70 66 - 88 100° 5 - 29.80 29.80 15 SCT011 BKN025 BKN090 None

Support USWX by starting your Amazon purchase here.